sensor_id;sensor_type;location;lat;lon;timestamp;pressure;altitude;pressure_sealevel;temperature;humidity
39309;BME280;26019;47.510;19.122;2022-08-21T00:06:15;99591.84;;;18.82;100.00
39309;BME280;26019;47.510;19.122;2022-08-21T00:16:17;99586.06;;;18.75;100.00
39309;BME280;26019;47.510;19.122;2022-08-21T00:26:22;99576.88;;;18.68;100.00
39309;BME280;26019;47.510;19.122;2022-08-21T00:36:24;99578.66;;;18.50;100.00
39309;BME280;26019;47.510;19.122;2022-08-21T00:46:26;99592.25;;;18.57;100.00
39309;BME280;26019;47.510;19.122;2022-08-21T00:56:29;99576.13;;;18.31;100.00
39309;BME280;26019;47.510;19.122;2022-08-21T01:06:34;99579.25;;;18.38;100.00
39309;BME280;26019;47.510;19.122;2022-08-21T01:16:36;99578.44;;;18.37;100.00
39309;BME280;26019;47.510;19.122;2022-08-21T01:26:40;99565.09;;;18.24;100.00
39309;BME280;26019;47.510;19.122;2022-08-21T01:36:43;99570.56;;;18.19;100.00
39309;BME280;26019;47.510;19.122;2022-08-21T01:46:45;99565.19;;;18.23;100.00
39309;BME280;26019;47.510;19.122;2022-08-21T01:56:48;99568.47;;;18.09;100.00
39309;BME280;26019;47.510;19.122;2022-08-21T02:06:52;99563.25;;;18.09;100.00
39309;BME280;26019;47.510;19.122;2022-08-21T02:16:54;99567.78;;;18.05;100.00
39309;BME280;26019;47.510;19.122;2022-08-21T02:27:09;99555.84;;;17.99;100.00
39309;BME280;26019;47.510;19.122;2022-08-21T02:37:12;99550.75;;;17.96;100.00
39309;BME280;26019;47.510;19.122;2022-08-21T02:47:14;99540.88;;;18.03;100.00
39309;BME280;26019;47.510;19.122;2022-08-21T02:57:16;99545.06;;;17.88;100.00
39309;BME280;26019;47.510;19.122;2022-08-21T03:07:17;99541.06;;;17.98;100.00
39309;BME280;26019;47.510;19.122;2022-08-21T03:17:19;99548.78;;;18.01;100.00
39309;BME280;26019;47.510;19.122;2022-08-21T03:27:31;99556.34;;;18.08;100.00
39309;BME280;26019;47.510;19.122;2022-08-21T03:37:33;99551.41;;;18.01;100.00
39309;BME280;26019;47.510;19.122;2022-08-21T03:47:35;99545.19;;;18.04;100.00
39309;BME280;26019;47.510;19.122;2022-08-21T03:57:36;99562.09;;;18.14;100.00
39309;BME280;26019;47.510;19.122;2022-08-21T04:07:38;99559.94;;;18.23;100.00
39309;BME280;26019;47.510;19.122;2022-08-21T04:17:40;99566.00;;;18.23;100.00
39309;BME280;26019;47.510;19.122;2022-08-21T04:27:43;99581.88;;;18.38;100.00
39309;BME280;26019;47.510;19.122;2022-08-21T04:37:45;99583.63;;;18.55;100.00
39309;BME280;26019;47.510;19.122;2022-08-21T04:47:49;99585.44;;;18.54;100.00
39309;BME280;26019;47.510;19.122;2022-08-21T04:57:55;99591.41;;;18.74;100.00
39309;BME280;26019;47.510;19.122;2022-08-21T05:07:59;99604.53;;;18.72;100.00
39309;BME280;26019;47.510;19.122;2022-08-21T05:18:03;99588.63;;;18.77;100.00
39309;BME280;26019;47.510;19.122;2022-08-21T05:28:05;99593.53;;;18.83;100.00
39309;BME280;26019;47.510;19.122;2022-08-21T05:38:09;99602.75;;;19.08;100.00
39309;BME280;26019;47.510;19.122;2022-08-21T05:48:20;99600.00;;;19.27;100.00
39309;BME280;26019;47.510;19.122;2022-08-21T05:58:22;99599.69;;;19.49;100.00
39309;BME280;26019;47.510;19.122;2022-08-21T06:08:25;99616.50;;;19.77;100.00
39309;BME280;26019;47.510;19.122;2022-08-21T06:18:27;99607.91;;;19.91;100.00
39309;BME280;26019;47.510;19.122;2022-08-21T06:28:29;99610.91;;;20.16;100.00
39309;BME280;26019;47.510;19.122;2022-08-21T06:38:31;99637.06;;;20.48;100.00
39309;BME280;26019;47.510;19.122;2022-08-21T06:48:36;99622.94;;;20.65;100.00
39309;BME280;26019;47.510;19.122;2022-08-21T06:58:38;99618.78;;;20.77;100.00
39309;BME280;26019;47.510;19.122;2022-08-21T07:08:40;99613.63;;;21.18;100.00
39309;BME280;26019;47.510;19.122;2022-08-21T07:18:43;99618.59;;;21.52;100.00
39309;BME280;26019;47.510;19.122;2022-08-21T07:28:54;99611.41;;;21.83;100.00
39309;BME280;26019;47.510;19.122;2022-08-21T07:38:56;99623.81;;;21.81;100.00
39309;BME280;26019;47.510;19.122;2022-08-21T07:48:58;99616.59;;;22.65;100.00
39309;BME280;26019;47.510;19.122;2022-08-21T07:59:00;99605.03;;;23.81;100.00
39309;BME280;26019;47.510;19.122;2022-08-21T08:09:04;99596.19;;;24.07;99.51
39309;BME280;26019;47.510;19.122;2022-08-21T08:19:05;99573.09;;;23.49;100.00
39309;BME280;26019;47.510;19.122;2022-08-21T08:29:07;99593.41;;;24.33;98.26
39309;BME280;26019;47.510;19.122;2022-08-21T08:39:09;99593.28;;;24.81;96.48
39309;BME280;26019;47.510;19.122;2022-08-21T08:49:22;99581.03;;;24.92;93.27
39309;BME280;26019;47.510;19.122;2022-08-21T08:59:38;99577.13;;;24.61;92.63
39309;BME280;26019;47.510;19.122;2022-08-21T09:30:32;99587.84;;;25.40;86.90
39309;BME280;26019;47.510;19.122;2022-08-21T09:40:45;99579.94;;;26.80;76.14
39309;BME280;26019;47.510;19.122;2022-08-21T09:50:48;99585.94;;;26.30;78.63
39309;BME280;26019;47.510;19.122;2022-08-21T10:01:02;99576.06;;;27.56;71.83
39309;BME280;26019;47.510;19.122;2022-08-21T10:11:11;99574.41;;;27.24;73.44
39309;BME280;26019;47.510;19.122;2022-08-21T10:32:27;99584.25;;;27.43;75.60
39309;BME280;26019;47.510;19.122;2022-08-21T11:03:34;99577.19;;;24.84;96.74
39309;BME280;26019;47.510;19.122;2022-08-21T11:13:44;99581.63;;;24.25;100.00
39309;BME280;26019;47.510;19.122;2022-08-21T11:34:35;99558.47;;;25.10;95.20
39309;BME280;26019;47.510;19.122;2022-08-21T11:44:59;99561.41;;;25.40;91.94
39309;BME280;26019;47.510;19.122;2022-08-21T11:55:09;99555.09;;;24.97;94.42
39309;BME280;26019;47.510;19.122;2022-08-21T12:05:30;99543.47;;;24.99;98.36
39309;BME280;26019;47.510;19.122;2022-08-21T12:15:34;99531.53;;;25.16;100.00
39309;BME280;26019;47.510;19.122;2022-08-21T12:26:25;99532.59;;;23.98;100.00
39309;BME280;26019;47.510;19.122;2022-08-21T12:36:57;99534.28;;;23.01;100.00
39309;BME280;26019;47.510;19.122;2022-08-21T12:47:04;99531.09;;;22.05;100.00
39309;BME280;26019;47.510;19.122;2022-08-21T13:07:13;99509.16;;;21.37;100.00
39309;BME280;26019;47.510;19.122;2022-08-21T13:17:21;99497.66;;;21.25;100.00
39309;BME280;26019;47.510;19.122;2022-08-21T13:27:28;99486.81;;;21.44;100.00
39309;BME280;26019;47.510;19.122;2022-08-21T13:37:33;99489.13;;;21.48;100.00
39309;BME280;26019;47.510;19.122;2022-08-21T13:47:34;99502.13;;;21.37;100.00
39309;BME280;26019;47.510;19.122;2022-08-21T13:57:36;99494.59;;;21.03;100.00
39309;BME280;26019;47.510;19.122;2022-08-21T14:07:39;99491.53;;;20.82;100.00
39309;BME280;26019;47.510;19.122;2022-08-21T14:17:42;99493.69;;;20.76;100.00
39309;BME280;26019;47.510;19.122;2022-08-21T14:37:52;99491.41;;;20.98;100.00
39309;BME280;26019;47.510;19.122;2022-08-21T14:47:57;99499.44;;;21.24;100.00
39309;BME280;26019;47.510;19.122;2022-08-21T14:58:01;99480.47;;;21.33;100.00
39309;BME280;26019;47.510;19.122;2022-08-21T15:08:06;99479.34;;;21.23;100.00
39309;BME280;26019;47.510;19.122;2022-08-21T15:18:09;99479.78;;;21.17;100.00
39309;BME280;26019;47.510;19.122;2022-08-21T15:28:11;99486.91;;;21.00;100.00
39309;BME280;26019;47.510;19.122;2022-08-21T15:38:14;99489.47;;;20.87;100.00
39309;BME280;26019;47.510;19.122;2022-08-21T15:48:16;99487.34;;;20.80;100.00
39309;BME280;26019;47.510;19.122;2022-08-21T15:58:18;99486.16;;;20.69;100.00
39309;BME280;26019;47.510;19.122;2022-08-21T16:08:22;99491.06;;;20.47;100.00
39309;BME280;26019;47.510;19.122;2022-08-21T16:18:24;99482.97;;;20.35;100.00
39309;BME280;26019;47.510;19.122;2022-08-21T16:28:29;99491.19;;;20.29;100.00
39309;BME280;26019;47.510;19.122;2022-08-21T16:38:34;99488.00;;;20.09;100.00
39309;BME280;26019;47.510;19.122;2022-08-21T16:48:39;99486.44;;;19.91;100.00
39309;BME280;26019;47.510;19.122;2022-08-21T16:58:47;99491.81;;;19.88;100.00
39309;BME280;26019;47.510;19.122;2022-08-21T17:08:50;99478.09;;;19.68;100.00
39309;BME280;26019;47.510;19.122;2022-08-21T17:18:54;99487.41;;;19.58;100.00
39309;BME280;26019;47.510;19.122;2022-08-21T17:28:55;99480.25;;;19.45;100.00
39309;BME280;26019;47.510;19.122;2022-08-21T17:38:58;99484.75;;;19.43;100.00
39309;BME280;26019;47.510;19.122;2022-08-21T17:48:59;99493.13;;;19.34;100.00
39309;BME280;26019;47.510;19.122;2022-08-21T17:59:03;99484.59;;;19.30;100.00
39309;BME280;26019;47.510;19.122;2022-08-21T18:09:06;99500.03;;;19.35;100.00
39309;BME280;26019;47.510;19.122;2022-08-21T18:19:10;99504.19;;;19.39;100.00
39309;BME280;26019;47.510;19.122;2022-08-21T18:29:17;99501.63;;;19.21;100.00
39309;BME280;26019;47.510;19.122;2022-08-21T18:39:20;99505.13;;;19.22;100.00
39309;BME280;26019;47.510;19.122;2022-08-21T18:49:39;99506.69;;;19.08;100.00
39309;BME280;26019;47.510;19.122;2022-08-21T18:59:42;99497.09;;;19.09;100.00
39309;BME280;26019;47.510;19.122;2022-08-21T19:09:44;99507.06;;;19.02;100.00
39309;BME280;26019;47.510;19.122;2022-08-21T19:20:10;99506.19;;;19.02;100.00
39309;BME280;26019;47.510;19.122;2022-08-21T19:30:40;99497.59;;;19.00;100.00
39309;BME280;26019;47.510;19.122;2022-08-21T19:40:47;99491.03;;;18.75;100.00
39309;BME280;26019;47.510;19.122;2022-08-21T19:50:49;99481.81;;;18.84;100.00
39309;BME280;26019;47.510;19.122;2022-08-21T20:00:52;99462.59;;;18.85;100.00
39309;BME280;26019;47.510;19.122;2022-08-21T20:10:57;99460.72;;;18.87;100.00
39309;BME280;26019;47.510;19.122;2022-08-21T20:21:07;99469.59;;;18.84;100.00
39309;BME280;26019;47.510;19.122;2022-08-21T20:31:09;99448.22;;;18.76;100.00
39309;BME280;26019;47.510;19.122;2022-08-21T20:41:18;99450.91;;;18.74;100.00
39309;BME280;26019;47.510;19.122;2022-08-21T20:51:41;99444.69;;;18.77;100.00
39309;BME280;26019;47.510;19.122;2022-08-21T21:01:46;99435.88;;;18.62;100.00
39309;BME280;26019;47.510;19.122;2022-08-21T21:12:02;99412.19;;;18.31;100.00
39309;BME280;26019;47.510;19.122;2022-08-21T21:22:11;99425.84;;;18.20;100.00
39309;BME280;26019;47.510;19.122;2022-08-21T21:32:15;99425.38;;;18.12;100.00
39309;BME280;26019;47.510;19.122;2022-08-21T21:42:47;99434.00;;;18.14;100.00
39309;BME280;26019;47.510;19.122;2022-08-21T21:53:08;99410.63;;;17.94;100.00
39309;BME280;26019;47.510;19.122;2022-08-21T22:23:30;99422.41;;;17.85;100.00
39309;BME280;26019;47.510;19.122;2022-08-21T22:33:38;99415.59;;;17.98;100.00
39309;BME280;26019;47.510;19.122;2022-08-21T22:53:56;99399.03;;;17.82;100.00
39309;BME280;26019;47.510;19.122;2022-08-21T23:04:19;99389.00;;;17.90;100.00
39309;BME280;26019;47.510;19.122;2022-08-21T23:14:23;99397.31;;;17.98;100.00
39309;BME280;26019;47.510;19.122;2022-08-21T23:35:26;99390.25;;;18.00;100.00
39309;BME280;26019;47.510;19.122;2022-08-21T23:45:59;99398.72;;;17.88;100.00
